createdAt,value
2023-04-27T00:01:42.512Z,45.91
2023-04-27T00:04:09.436Z,49.03
2023-04-27T00:06:36.467Z,46.59
2023-04-27T00:09:04.658Z,46.11
2023-04-27T00:11:31.910Z,44.26
2023-04-27T00:13:58.945Z,44.30
2023-04-27T00:16:26.716Z,43.72
2023-04-27T00:18:54.094Z,45.39
2023-04-27T00:21:21.146Z,47.61
2023-04-27T00:23:48.217Z,48.67
2023-04-27T00:26:15.036Z,44.95
2023-04-27T00:28:44.258Z,45.36
2023-04-27T00:31:11.675Z,44.35
2023-04-27T00:33:38.559Z,44.04
2023-04-27T00:36:06.219Z,44.25
2023-04-27T00:38:33.151Z,43.67
2023-04-27T00:41:07.760Z,43.90
2023-04-27T00:43:43.819Z,44.77
2023-04-27T00:46:13.166Z,43.93
2023-04-27T00:48:41.170Z,44.19
2023-04-27T00:51:08.634Z,44.35
2023-04-27T00:53:36.893Z,43.93
2023-04-27T00:56:07.515Z,43.92
2023-04-27T00:58:35.080Z,45.16
2023-04-27T01:01:02.114Z,43.88
2023-04-27T01:03:30.758Z,44.42
2023-04-27T01:05:59.736Z,44.04
2023-04-27T01:08:26.468Z,43.32
2023-04-27T01:10:54.760Z,43.02
2023-04-27T01:13:22.237Z,44.64
2023-04-27T01:15:49.152Z,46.93
2023-04-27T01:18:15.888Z,44.77
2023-04-27T01:20:43.295Z,46.93
2023-04-27T01:23:17.447Z,48.22
2023-04-27T01:25:45.009Z,49.73
2023-04-27T01:28:12.301Z,48.89
2023-04-27T01:30:39.097Z,47.15
2023-04-27T01:33:06.564Z,44.21
2023-04-27T01:35:33.320Z,45.07
2023-04-27T01:38:00.504Z,42.83
2023-04-27T01:40:27.607Z,43.33
2023-04-27T01:42:54.273Z,43.44
2023-04-27T01:45:21.424Z,44.16
2023-04-27T01:47:52.004Z,43.59
2023-04-27T01:50:20.716Z,43.48
2023-04-27T01:52:47.597Z,44.43
2023-04-27T01:55:14.879Z,44.70
2023-04-27T01:57:42.590Z,44.08
2023-04-27T02:00:10.038Z,45.82
2023-04-27T02:02:51.185Z,45.82
2023-04-27T02:05:18.295Z,46.13
2023-04-27T02:07:46.167Z,44.42
2023-04-27T02:10:12.939Z,44.35
2023-04-27T02:12:39.627Z,44.26
2023-04-27T02:15:08.694Z,43.90
2023-04-27T02:17:35.960Z,44.49
2023-04-27T02:20:02.727Z,43.43
2023-04-27T02:22:29.863Z,44.47
2023-04-27T02:24:56.753Z,44.64
2023-04-27T02:27:23.479Z,44.31
2023-04-27T02:29:50.974Z,44.84
2023-04-27T02:32:18.258Z,44.67
2023-04-27T02:34:45.428Z,44.26
2023-04-27T02:37:12.519Z,44.31
2023-04-27T02:39:39.324Z,44.29
2023-04-27T02:42:06.410Z,44.16
2023-04-27T02:44:33.128Z,45.84
2023-04-27T02:47:00.610Z,47.19
2023-04-27T02:49:27.824Z,47.13
2023-04-27T02:51:54.596Z,46.77
2023-04-27T02:54:21.302Z,44.73
2023-04-27T02:56:48.065Z,45.38
2023-04-27T02:59:15.131Z,47.38
2023-04-27T03:01:42.276Z,46.44
2023-04-27T03:04:09.820Z,49.53
2023-04-27T03:06:36.676Z,49.77
2023-04-27T03:09:03.977Z,50.00
2023-04-27T03:11:31.148Z,48.13
2023-04-27T03:13:58.126Z,47.87
2023-04-27T03:16:24.968Z,46.16
2023-04-27T03:18:51.744Z,45.89
2023-04-27T03:21:18.768Z,46.45
2023-04-27T03:23:49.069Z,46.27
2023-04-27T03:26:16.581Z,49.50
2023-04-27T03:28:43.539Z,47.04
2023-04-27T03:31:12.210Z,46.99
2023-04-27T03:33:39.940Z,49.43
2023-04-27T03:36:08.262Z,48.01
2023-04-27T03:38:35.715Z,47.31
2023-04-27T03:41:03.117Z,50.71
2023-04-27T03:43:29.942Z,48.23
2023-04-27T03:45:56.872Z,50.71
2023-04-27T03:48:24.308Z,50.29
2023-04-27T03:50:53.234Z,49.67
2023-04-27T03:53:20.797Z,48.39
2023-04-27T03:55:48.326Z,46.51
2023-04-27T03:58:17.470Z,45.75
2023-04-27T04:01:03.421Z,44.65
2023-04-27T04:03:30.526Z,44.48
2023-04-27T04:05:57.504Z,45.35
2023-04-27T04:08:24.288Z,44.87
2023-04-27T04:10:51.006Z,45.43
2023-04-27T04:13:17.789Z,47.25
2023-04-27T04:15:44.951Z,47.21
2023-04-27T04:18:12.389Z,45.74
2023-04-27T04:20:39.122Z,44.63
2023-04-27T04:23:06.284Z,48.52
2023-04-27T04:25:33.674Z,50.47
2023-04-27T04:28:01.120Z,48.44
2023-04-27T04:30:29.067Z,50.08
2023-04-27T04:32:55.852Z,47.52
2023-04-27T04:35:22.686Z,46.30
2023-04-27T04:37:49.993Z,47.80
2023-04-27T04:40:17.139Z,45.26
2023-04-27T04:42:44.140Z,48.92
2023-04-27T04:45:11.569Z,45.30
2023-04-27T04:47:39.814Z,45.13
2023-04-27T04:50:07.377Z,46.12
2023-04-27T04:52:35.177Z,47.39
2023-04-27T04:55:01.928Z,47.54
2023-04-27T04:57:31.284Z,47.61
2023-04-27T04:59:58.238Z,46.78
2023-04-27T05:02:25.214Z,44.92
2023-04-27T05:04:57.027Z,50.31
2023-04-27T05:07:25.109Z,48.52
2023-04-27T05:09:52.689Z,49.36
2023-04-27T05:12:19.512Z,50.24
2023-04-27T05:14:46.725Z,45.63
2023-04-27T05:17:13.422Z,44.04
2023-04-27T05:19:40.310Z,44.63
2023-04-27T05:22:07.012Z,45.94
2023-04-27T05:24:34.326Z,45.26
2023-04-27T05:27:02.491Z,47.74
2023-04-27T05:29:29.665Z,45.45
2023-04-27T05:31:56.445Z,48.27
2023-04-27T05:34:23.257Z,45.87
2023-04-27T05:36:50.226Z,46.96
2023-04-27T05:39:17.125Z,46.53
2023-04-27T05:41:43.902Z,47.44
2023-04-27T05:44:10.986Z,46.04
2023-04-27T05:46:38.876Z,46.85
2023-04-27T05:49:05.880Z,45.21
2023-04-27T05:51:33.626Z,43.80
2023-04-27T05:54:02.114Z,45.78
2023-04-27T05:56:29.033Z,44.46
2023-04-27T05:58:55.763Z,43.29
2023-04-27T06:01:24.114Z,44.67
2023-04-27T06:03:51.070Z,43.17
2023-04-27T06:06:17.908Z,45.74
2023-04-27T06:08:44.844Z,44.43
2023-04-27T06:11:11.967Z,44.15
2023-04-27T06:13:39.270Z,43.97
2023-04-27T06:16:06.184Z,43.13
2023-04-27T06:18:32.931Z,42.41
2023-04-27T06:21:01.663Z,40.60
2023-04-27T06:23:28.867Z,39.72
2023-04-27T06:25:56.058Z,43.94
2023-04-27T06:28:23.440Z,41.85
2023-04-27T06:30:50.268Z,43.23
2023-04-27T06:33:17.857Z,41.50
2023-04-27T06:35:47.386Z,40.46
2023-04-27T06:38:14.398Z,40.96
2023-04-27T06:40:41.180Z,42.91
2023-04-27T06:43:08.337Z,41.55
2023-04-27T06:45:36.335Z,40.45
2023-04-27T06:48:03.351Z,41.96
2023-04-27T06:50:30.820Z,39.94
2023-04-27T06:52:57.963Z,42.78
2023-04-27T06:55:25.358Z,42.78
2023-04-27T06:57:52.506Z,38.71
2023-04-27T07:00:19.900Z,38.97
2023-04-27T07:02:47.103Z,40.02
2023-04-27T07:05:13.992Z,40.17
2023-04-27T07:07:40.716Z,40.36
2023-04-27T07:10:08.899Z,39.71
2023-04-27T07:12:35.854Z,39.69
2023-04-27T07:15:04.502Z,39.88
2023-04-27T07:17:31.364Z,39.92
2023-04-27T07:19:58.631Z,41.35
2023-04-27T07:22:25.715Z,41.06
2023-04-27T07:24:52.769Z,42.36
2023-04-27T07:27:20.439Z,41.60
2023-04-27T07:29:48.181Z,41.46
2023-04-27T07:32:15.235Z,41.48
2023-04-27T07:34:52.926Z,40.31
2023-04-27T07:37:22.167Z,41.25
2023-04-27T07:39:50.483Z,41.04
2023-04-27T07:42:18.585Z,39.73
2023-04-27T07:44:45.306Z,39.29
2023-04-27T07:47:13.305Z,40.19
2023-04-27T07:49:40.677Z,42.05
2023-04-27T07:52:08.421Z,39.65
2023-04-27T07:54:35.307Z,38.94
2023-04-27T07:57:07.890Z,39.32
2023-04-27T07:59:34.640Z,38.61
2023-04-27T08:02:17.838Z,36.99
2023-04-27T08:04:47.046Z,35.95
2023-04-27T08:07:18.484Z,36.95
2023-04-27T08:09:46.421Z,37.87
2023-04-27T08:12:13.144Z,35.30
2023-04-27T08:14:39.831Z,38.19
2023-04-27T08:17:07.299Z,38.47
2023-04-27T08:19:34.424Z,36.59
2023-04-27T08:22:01.463Z,35.79
2023-04-27T08:24:28.374Z,36.40
2023-04-27T08:26:55.616Z,36.45
2023-04-27T08:29:27.992Z,36.77
2023-04-27T08:31:58.855Z,35.68
2023-04-27T08:34:26.848Z,36.42
2023-04-27T08:36:54.659Z,36.18
2023-04-27T08:39:21.895Z,35.78
2023-04-27T08:41:49.013Z,35.11
2023-04-27T08:44:16.527Z,33.90
2023-04-27T08:46:43.408Z,36.90
2023-04-27T08:49:10.940Z,37.25
2023-04-27T08:51:37.839Z,35.27
2023-04-27T08:54:04.585Z,36.10
2023-04-27T08:56:31.935Z,36.22
2023-04-27T08:59:00.676Z,35.04
2023-04-27T09:01:27.770Z,34.36
2023-04-27T09:04:00.397Z,33.54
2023-04-27T09:06:32.066Z,33.37
2023-04-27T09:08:59.717Z,33.68
2023-04-27T09:11:38.619Z,34.69
2023-04-27T09:14:23.988Z,35.21
2023-04-27T09:16:58.587Z,32.25
2023-04-27T09:19:30.068Z,33.91
2023-04-27T09:22:11.691Z,30.65
2023-04-27T09:24:39.054Z,33.92
2023-04-27T09:27:07.210Z,31.85
2023-04-27T09:29:36.317Z,30.57
2023-04-27T09:32:16.786Z,29.56
2023-04-27T09:34:44.244Z,29.64
2023-04-27T09:37:11.647Z,31.11
2023-04-27T09:39:39.109Z,30.69
2023-04-27T09:42:06.242Z,31.07
2023-04-27T09:44:34.572Z,29.54
2023-04-27T09:47:01.376Z,30.34
2023-04-27T09:49:29.563Z,30.87
2023-04-27T09:51:58.818Z,30.42
2023-04-27T09:54:29.259Z,30.51
2023-04-27T09:57:30.176Z,29.85
2023-04-27T10:00:34.022Z,31.96
2023-04-27T10:03:19.885Z,28.78
2023-04-27T10:05:58.801Z,29.28
2023-04-27T10:08:26.827Z,29.94
2023-04-27T10:10:53.724Z,31.09
2023-04-27T10:13:26.816Z,30.13
2023-04-27T10:15:54.301Z,31.89
2023-04-27T10:18:29.854Z,28.87
2023-04-27T10:20:58.197Z,30.55
2023-04-27T10:23:27.521Z,30.21
2023-04-27T10:25:54.852Z,27.90
2023-04-27T10:28:21.620Z,31.18
2023-04-27T10:30:49.351Z,31.07
2023-04-27T10:33:21.795Z,28.52
2023-04-27T10:35:57.283Z,29.76
2023-04-27T10:38:31.051Z,29.43
2023-04-27T10:41:03.075Z,30.14
2023-04-27T10:43:31.953Z,30.84
2023-04-27T10:46:15.903Z,29.33
2023-04-27T10:48:44.626Z,30.03
2023-04-27T10:51:17.406Z,29.71
2023-04-27T10:53:44.770Z,30.88
2023-04-27T10:56:11.802Z,29.91
2023-04-27T11:01:09.241Z,28.25
2023-04-27T11:03:36.702Z,28.03
2023-04-27T11:06:05.652Z,29.06
2023-04-27T11:08:36.782Z,26.30
2023-04-27T11:11:05.361Z,25.97
2023-04-27T11:13:33.630Z,28.47
2023-04-27T11:16:00.967Z,28.54
2023-04-27T11:18:31.659Z,26.65
2023-04-27T11:21:18.840Z,30.47
2023-04-27T11:23:46.238Z,30.70
2023-04-27T11:26:16.030Z,32.14
2023-04-27T11:28:44.479Z,33.57
2023-04-27T11:31:11.848Z,31.84
2023-04-27T11:33:40.245Z,30.82
2023-04-27T11:36:21.178Z,29.64
2023-04-27T11:38:48.305Z,29.38
2023-04-27T11:41:16.179Z,28.98
2023-04-27T11:43:49.863Z,26.14
2023-04-27T11:46:21.308Z,25.13
2023-04-27T11:48:49.166Z,28.18
2023-04-27T11:51:16.384Z,26.96
2023-04-27T11:53:48.268Z,30.26
2023-04-27T11:56:15.372Z,28.11
2023-04-27T11:58:44.445Z,29.17
2023-04-27T12:01:13.526Z,29.30
2023-04-27T12:03:40.822Z,29.98
2023-04-27T12:06:27.787Z,28.91
2023-04-27T12:08:58.281Z,29.76
2023-04-27T12:11:28.786Z,30.67
2023-04-27T12:13:57.054Z,30.45
2023-04-27T12:16:23.850Z,29.23
2023-04-27T12:18:51.016Z,29.23
2023-04-27T12:21:18.425Z,27.06
2023-04-27T12:23:45.612Z,28.79
2023-04-27T12:26:14.957Z,28.34
2023-04-27T12:28:42.522Z,26.51
2023-04-27T12:31:13.509Z,29.03
2023-04-27T12:33:40.270Z,29.55
2023-04-27T12:36:07.412Z,27.81
2023-04-27T12:38:34.404Z,30.32
2023-04-27T12:41:02.280Z,30.07
2023-04-27T12:43:28.997Z,28.69
2023-04-27T12:45:56.311Z,28.75
2023-04-27T12:48:23.766Z,28.61
2023-04-27T12:50:51.535Z,29.66
2023-04-27T12:53:18.294Z,26.55
2023-04-27T12:55:45.114Z,23.87
2023-04-27T12:58:11.949Z,26.63
2023-04-27T13:00:39.357Z,30.86
2023-04-27T13:03:07.005Z,30.03
2023-04-27T13:05:33.760Z,28.06
2023-04-27T13:08:00.707Z,31.52
2023-04-27T13:10:29.610Z,26.82
2023-04-27T13:12:56.736Z,28.97
2023-04-27T13:15:23.482Z,29.89
2023-04-27T13:17:50.799Z,30.18
2023-04-27T13:20:17.701Z,31.60
2023-04-27T13:22:44.471Z,29.49
2023-04-27T13:25:11.553Z,28.23
2023-04-27T13:27:38.495Z,28.46
2023-04-27T13:30:06.768Z,27.47
2023-04-27T13:32:33.885Z,27.11
2023-04-27T13:35:00.645Z,28.73
2023-04-27T13:37:28.067Z,30.75
2023-04-27T13:39:54.755Z,28.06
2023-04-27T13:42:22.018Z,29.95
2023-04-27T13:44:48.978Z,30.44
2023-04-27T13:47:15.751Z,30.32
2023-04-27T13:49:42.979Z,31.19
2023-04-27T13:52:10.178Z,29.85
2023-04-27T13:54:37.486Z,32.88
2023-04-27T13:57:04.253Z,31.46
2023-04-27T13:59:30.985Z,31.39
2023-04-27T14:01:58.718Z,29.96
2023-04-27T14:04:25.553Z,30.11
2023-04-27T14:06:52.612Z,29.07
2023-04-27T14:09:19.432Z,28.66
2023-04-27T14:11:55.719Z,28.39
2023-04-27T14:14:24.212Z,26.77
2023-04-27T14:16:51.573Z,31.17
2023-04-27T14:19:20.605Z,29.52
2023-04-27T14:21:49.823Z,31.21
2023-04-27T14:24:16.872Z,32.10
2023-04-27T14:26:44.586Z,29.91
2023-04-27T14:29:12.188Z,31.12
2023-04-27T14:31:40.235Z,29.59
2023-04-27T14:34:08.061Z,29.98
2023-04-27T14:36:35.528Z,31.04
2023-04-27T14:39:02.796Z,28.22
2023-04-27T14:41:30.430Z,28.48
2023-04-27T14:43:57.505Z,29.78
2023-04-27T14:46:24.448Z,31.31
2023-04-27T14:48:51.760Z,29.37
2023-04-27T14:51:18.789Z,31.09
2023-04-27T14:53:45.571Z,29.29
2023-04-27T14:56:12.568Z,26.39
2023-04-27T14:58:39.364Z,28.91
2023-04-27T15:01:07.893Z,27.96
2023-04-27T15:03:35.024Z,28.86
2023-04-27T15:06:02.811Z,29.04
2023-04-27T15:08:32.683Z,27.97
2023-04-27T15:11:01.066Z,30.69
2023-04-27T15:13:28.254Z,29.37
2023-04-27T15:15:57.104Z,29.41
2023-04-27T15:18:24.905Z,28.53
2023-04-27T15:21:00.746Z,28.84
2023-04-27T15:23:27.917Z,30.75
2023-04-27T15:25:56.990Z,29.39
2023-04-27T15:28:24.311Z,29.76
2023-04-27T15:30:51.229Z,29.78
2023-04-27T15:33:18.886Z,29.70
2023-04-27T15:35:46.145Z,29.79
2023-04-27T15:38:14.847Z,31.47
2023-04-27T15:40:41.904Z,30.72
2023-04-27T15:43:08.888Z,30.66
2023-04-27T15:45:36.289Z,31.67
2023-04-27T15:48:03.211Z,30.57
2023-04-27T15:50:31.022Z,33.22
2023-04-27T15:52:58.165Z,31.86
2023-04-27T15:55:25.022Z,32.86
2023-04-27T15:57:52.608Z,33.57
2023-04-27T16:00:22.675Z,31.90
2023-04-27T16:02:49.845Z,31.90
2023-04-27T16:05:17.097Z,30.65
2023-04-27T16:07:45.921Z,32.64
2023-04-27T16:10:13.560Z,30.98
2023-04-27T16:12:40.897Z,29.94
2023-04-27T16:15:11.493Z,31.43
2023-04-27T16:17:39.193Z,33.45
2023-04-27T16:20:06.940Z,34.79
2023-04-27T16:22:35.094Z,33.09
2023-04-27T16:25:02.371Z,35.55
2023-04-27T16:27:29.238Z,34.40
2023-04-27T16:29:57.458Z,34.76
2023-04-27T16:32:24.542Z,34.20
2023-04-27T16:34:51.985Z,34.32
2023-04-27T16:37:18.965Z,32.09
2023-04-27T16:39:46.907Z,33.78
2023-04-27T16:42:18.678Z,34.93
2023-04-27T16:44:46.610Z,34.93
2023-04-27T16:47:13.778Z,35.28
2023-04-27T16:49:43.584Z,34.22
2023-04-27T16:52:11.282Z,35.58
2023-04-27T16:54:38.583Z,34.05
2023-04-27T16:57:05.419Z,35.13
2023-04-27T16:59:32.554Z,34.83
2023-04-27T17:02:08.996Z,35.32
2023-04-27T17:04:40.839Z,35.90
2023-04-27T17:07:09.309Z,35.36
2023-04-27T17:09:39.186Z,35.05
2023-04-27T17:12:10.985Z,34.16
2023-04-27T17:14:38.854Z,34.22
2023-04-27T17:17:06.496Z,34.19
2023-04-27T17:19:33.347Z,35.16
2023-04-27T17:22:00.575Z,35.31
2023-04-27T17:24:27.390Z,35.45
2023-04-27T17:26:54.646Z,37.18
2023-04-27T17:29:21.812Z,36.26
2023-04-27T17:31:50.432Z,35.09
2023-04-27T17:34:17.704Z,35.17
2023-04-27T17:36:44.473Z,36.16
2023-04-27T17:39:13.194Z,35.65
2023-04-27T17:41:40.875Z,36.68
2023-04-27T17:44:07.730Z,36.18
2023-04-27T17:46:34.641Z,34.19
2023-04-27T17:49:02.031Z,36.88
2023-04-27T17:51:28.746Z,36.00
2023-04-27T17:53:55.676Z,37.23
2023-04-27T17:56:22.811Z,36.83
2023-04-27T17:58:49.638Z,35.25
2023-04-27T18:01:17.372Z,37.81
2023-04-27T18:03:44.678Z,37.09
2023-04-27T18:06:11.758Z,39.89
2023-04-27T18:08:38.991Z,38.33
2023-04-27T18:11:06.727Z,39.46
2023-04-27T18:13:33.501Z,38.65
2023-04-27T18:16:00.216Z,39.22
2023-04-27T18:18:28.395Z,40.98
2023-04-27T18:20:55.470Z,39.07
2023-04-27T18:23:22.344Z,38.59
2023-04-27T18:25:49.782Z,39.79
2023-04-27T18:28:17.240Z,41.23
2023-04-27T18:30:44.031Z,41.27
2023-04-27T18:33:10.940Z,40.62
2023-04-27T18:35:37.991Z,41.04
2023-04-27T18:38:04.759Z,41.16
2023-04-27T18:40:32.783Z,40.55
2023-04-27T18:43:00.199Z,42.34
2023-04-27T18:45:27.206Z,41.78
2023-04-27T18:47:54.577Z,41.86
2023-04-27T18:50:21.425Z,43.48
2023-04-27T18:52:48.283Z,43.28
2023-04-27T18:55:16.839Z,42.93
2023-04-27T18:57:44.065Z,43.27
2023-04-27T19:00:13.965Z,43.00
2023-04-27T19:02:41.111Z,42.98
2023-04-27T19:05:13.109Z,40.77
2023-04-27T19:07:41.053Z,41.09
2023-04-27T19:10:08.530Z,43.73
2023-04-27T19:12:35.965Z,44.75
2023-04-27T19:15:03.851Z,45.38
2023-04-27T19:17:31.496Z,41.89
2023-04-27T19:19:58.741Z,41.75
2023-04-27T19:22:27.439Z,41.60
2023-04-27T19:24:54.608Z,42.34
2023-04-27T19:27:21.318Z,42.24
2023-04-27T19:29:53.654Z,41.52
2023-04-27T19:32:22.236Z,42.03
2023-04-27T19:34:49.402Z,41.73
2023-04-27T19:37:17.338Z,45.56
2023-04-27T19:39:44.431Z,43.02
2023-04-27T19:42:11.386Z,42.18
2023-04-27T19:44:38.076Z,46.81
2023-04-27T19:47:05.571Z,46.17
2023-04-27T19:49:33.732Z,47.95
2023-04-27T19:52:00.998Z,46.92
2023-04-27T19:54:27.892Z,44.66
2023-04-27T19:56:55.767Z,46.74
2023-04-27T19:59:22.884Z,46.13
2023-04-27T20:01:49.663Z,48.25
2023-04-27T20:04:18.198Z,44.42
2023-04-27T20:06:46.378Z,47.73
2023-04-27T20:09:13.156Z,47.54
2023-04-27T20:11:40.617Z,44.79
2023-04-27T20:14:07.334Z,48.07
2023-04-27T20:16:34.166Z,45.62
2023-04-27T20:19:01.194Z,45.88
2023-04-27T20:21:28.194Z,47.00
2023-04-27T20:23:55.550Z,45.15
2023-04-27T20:26:22.569Z,49.73
2023-04-27T20:28:49.637Z,47.84
2023-04-27T20:31:16.610Z,45.24
2023-04-27T20:33:43.421Z,44.38
2023-04-27T20:36:17.313Z,45.12
2023-04-27T20:38:46.200Z,43.95
2023-04-27T20:41:13.089Z,47.55
2023-04-27T20:43:40.594Z,47.17
2023-04-27T20:46:08.436Z,44.14
2023-04-27T20:48:35.273Z,45.35
2023-04-27T20:51:02.797Z,48.27
2023-04-27T20:53:29.995Z,47.12
2023-04-27T20:55:57.255Z,47.52
2023-04-27T20:58:24.010Z,46.20
2023-04-27T21:00:51.608Z,44.51
2023-04-27T21:03:18.766Z,47.68
2023-04-27T21:05:46.003Z,46.49
2023-04-27T21:08:12.784Z,46.79
2023-04-27T21:10:39.876Z,48.70
2023-04-27T21:13:07.127Z,45.51
2023-04-27T21:15:34.546Z,45.00
2023-04-27T21:18:02.007Z,43.48
2023-04-27T21:20:28.802Z,45.67
2023-04-27T21:22:56.265Z,47.61
2023-04-27T21:25:23.844Z,44.34
2023-04-27T21:27:51.022Z,50.54
2023-04-27T21:30:18.495Z,49.70
2023-04-27T21:32:45.442Z,48.65
2023-04-27T21:35:12.502Z,48.77
2023-04-27T21:37:39.216Z,46.07
2023-04-27T21:40:07.021Z,46.97
2023-04-27T21:42:33.711Z,49.53
2023-04-27T21:45:01.029Z,48.08
2023-04-27T21:47:28.144Z,49.27
2023-04-27T21:49:55.232Z,46.96
2023-04-27T21:52:21.989Z,46.04
2023-04-27T21:54:48.784Z,48.10
2023-04-27T21:57:16.931Z,49.11
2023-04-27T21:59:45.427Z,47.17
2023-04-27T22:02:12.729Z,45.18
2023-04-27T22:04:39.699Z,44.86
2023-04-27T22:07:10.911Z,49.85
2023-04-27T22:09:38.232Z,46.64
2023-04-27T22:12:05.768Z,45.15
2023-04-27T22:14:32.901Z,47.90
2023-04-27T22:17:01.126Z,52.11
2023-04-27T22:19:28.889Z,47.56
2023-04-27T22:21:55.761Z,52.66
2023-04-27T22:24:22.707Z,47.19
2023-04-27T22:26:49.800Z,45.44
2023-04-27T22:29:16.793Z,51.10
2023-04-27T22:31:44.271Z,47.67
2023-04-27T22:34:14.730Z,45.46
2023-04-27T22:36:42.032Z,47.34
2023-04-27T22:39:09.036Z,45.11
2023-04-27T22:41:36.151Z,47.74
2023-04-27T22:44:02.967Z,46.71
2023-04-27T22:46:29.910Z,44.71
2023-04-27T22:48:58.648Z,48.38
2023-04-27T22:51:27.305Z,46.71
2023-04-27T22:53:54.664Z,46.72
2023-04-27T22:56:22.536Z,44.37
2023-04-27T22:58:50.196Z,44.99
2023-04-27T23:01:17.084Z,46.29
2023-04-27T23:03:44.112Z,49.53
2023-04-27T23:06:16.817Z,47.16
2023-04-27T23:08:46.022Z,48.42
2023-04-27T23:11:15.495Z,48.17
2023-04-27T23:13:42.390Z,44.65
2023-04-27T23:16:10.047Z,43.49
2023-04-27T23:18:37.115Z,45.18
2023-04-27T23:21:04.339Z,44.02
2023-04-27T23:23:31.172Z,44.14
2023-04-27T23:25:58.216Z,43.61
2023-04-27T23:28:24.974Z,47.45
2023-04-27T23:30:55.431Z,47.90
2023-04-27T23:33:22.831Z,47.50
2023-04-27T23:35:49.718Z,47.76
2023-04-27T23:38:16.623Z,46.39
2023-04-27T23:40:43.537Z,46.64
2023-04-27T23:43:10.566Z,51.65
2023-04-27T23:45:37.738Z,49.43
2023-04-27T23:48:04.920Z,49.63
2023-04-27T23:50:32.012Z,52.48
2023-04-27T23:52:58.947Z,50.48
2023-04-27T23:55:25.623Z,48.82
2023-04-27T23:57:52.557Z,45.15
